createdAt,value
2022-11-02T00:01:57.633Z,100.00
2022-11-02T00:04:44.579Z,100.00
2022-11-02T00:07:31.898Z,100.00
2022-11-02T00:09:59.154Z,100.00
2022-11-02T00:12:46.438Z,100.00
2022-11-02T00:15:14.291Z,100.00
2022-11-02T00:18:05.266Z,100.00
2022-11-02T00:20:58.697Z,100.00
2022-11-02T00:23:26.511Z,100.00
2022-11-02T00:26:15.950Z,100.00
2022-11-02T00:28:43.368Z,100.00
2022-11-02T00:31:30.484Z,100.00
2022-11-02T00:34:17.609Z,100.00
2022-11-02T00:36:59.697Z,100.00
2022-11-02T00:39:46.495Z,100.00
2022-11-02T00:42:33.883Z,100.00
2022-11-02T00:45:20.804Z,100.00
2022-11-02T00:48:07.787Z,100.00
2022-11-02T00:50:54.312Z,100.00
2022-11-02T00:53:23.081Z,100.00
2022-11-02T00:55:54.052Z,100.00
2022-11-02T00:58:23.394Z,100.00
2022-11-02T01:01:10.159Z,100.00
2022-11-02T01:03:57.768Z,100.00
2022-11-02T01:06:43.002Z,100.00
2022-11-02T01:09:29.994Z,100.00
2022-11-02T01:12:16.738Z,100.00
2022-11-02T01:14:43.946Z,100.00
2022-11-02T01:17:30.697Z,100.00
2022-11-02T01:20:18.008Z,100.00
2022-11-02T01:23:06.050Z,100.00
2022-11-02T01:25:53.117Z,100.00
2022-11-02T01:28:40.203Z,100.00
2022-11-02T01:31:28.610Z,100.00
2022-11-02T01:34:12.778Z,100.00
2022-11-02T01:36:59.539Z,100.00
2022-11-02T01:39:46.327Z,100.00
2022-11-02T01:42:24.304Z,100.00
2022-11-02T01:45:13.545Z,100.00
2022-11-02T01:48:00.272Z,100.00
2022-11-02T01:50:47.248Z,100.00
2022-11-02T01:53:16.366Z,100.00
2022-11-02T01:56:04.339Z,100.00
2022-11-02T01:58:56.884Z,100.00
2022-11-02T02:01:27.881Z,100.00
2022-11-02T02:03:59.975Z,100.00
2022-11-02T02:06:47.319Z,100.00
2022-11-02T02:09:35.005Z,100.00
2022-11-02T02:12:01.813Z,100.00
2022-11-02T02:14:48.762Z,100.00
2022-11-02T02:17:43.403Z,100.00
2022-11-02T02:20:47.525Z,100.00
2022-11-02T02:24:02.192Z,100.00
2022-11-02T02:27:05.745Z,100.00
2022-11-02T02:30:09.665Z,100.00
2022-11-02T02:33:02.062Z,100.00
2022-11-02T02:35:49.653Z,100.00
2022-11-02T02:38:42.043Z,100.00
2022-11-02T02:41:41.812Z,100.00
2022-11-02T02:44:23.521Z,100.00
2022-11-02T02:47:18.842Z,100.00
2022-11-02T02:49:57.531Z,100.00
2022-11-02T02:52:28.767Z,100.00
2022-11-02T02:55:20.923Z,100.00
2022-11-02T02:57:49.924Z,100.00
2022-11-02T03:00:38.609Z,100.00
2022-11-02T03:03:27.651Z,100.00
2022-11-02T03:06:24.813Z,100.00
2022-11-02T03:09:21.196Z,100.00
2022-11-02T03:12:43.593Z,100.00
2022-11-02T03:15:50.368Z,100.00
2022-11-02T03:19:03.817Z,100.00
2022-11-02T03:22:02.717Z,100.00
2022-11-02T03:25:08.482Z,100.00
2022-11-02T03:28:12.388Z,100.00
2022-11-02T03:30:49.988Z,100.00
2022-11-02T03:33:44.881Z,100.00
2022-11-02T03:36:37.187Z,100.00
2022-11-02T03:39:41.191Z,100.00
2022-11-02T03:42:28.299Z,100.00
2022-11-02T03:45:21.242Z,100.00
2022-11-02T03:48:11.491Z,100.00
2022-11-02T03:51:02.986Z,100.00
2022-11-02T03:53:55.657Z,100.00
2022-11-02T03:56:44.862Z,100.00
2022-11-02T03:59:17.179Z,100.00
2022-11-02T04:02:02.727Z,100.00
2022-11-02T04:04:53.102Z,100.00
2022-11-02T04:07:58.530Z,100.00
2022-11-02T04:11:02.476Z,100.00
2022-11-02T04:13:52.406Z,100.00
2022-11-02T04:16:27.572Z,100.00
2022-11-02T04:19:19.089Z,100.00
2022-11-02T04:22:24.226Z,100.00
2022-11-02T04:25:18.772Z,100.00
2022-11-02T04:28:09.724Z,100.00
2022-11-02T04:31:00.063Z,100.00
2022-11-02T04:33:47.112Z,100.00
2022-11-02T04:36:36.856Z,100.00
2022-11-02T04:39:05.678Z,100.00
2022-11-02T04:41:50.192Z,100.00
2022-11-02T04:44:33.826Z,100.00
2022-11-02T04:47:20.747Z,100.00
2022-11-02T04:50:08.154Z,100.00
2022-11-02T04:52:35.455Z,100.00
2022-11-02T04:55:18.693Z,100.00
2022-11-02T04:58:05.690Z,100.00
2022-11-02T05:00:52.173Z,100.00
2022-11-02T05:03:21.259Z,100.00
2022-11-02T05:06:09.459Z,100.00
2022-11-02T05:08:56.410Z,100.00
2022-11-02T05:11:43.128Z,100.00
2022-11-02T05:14:29.833Z,100.00
2022-11-02T05:17:18.871Z,100.00
2022-11-02T05:20:07.642Z,100.00
2022-11-02T05:22:40.359Z,100.00
2022-11-02T05:25:27.016Z,100.00
2022-11-02T05:27:58.175Z,100.00
2022-11-02T05:30:44.834Z,100.00
2022-11-02T05:33:11.625Z,100.00
2022-11-02T05:35:42.929Z,100.00
2022-11-02T05:38:10.952Z,100.00
2022-11-02T05:40:40.550Z,100.00
2022-11-02T05:43:09.867Z,100.00
2022-11-02T05:45:37.603Z,100.00
2022-11-02T05:48:30.947Z,100.00
2022-11-02T05:51:15.741Z,100.00
2022-11-02T05:53:44.227Z,100.00
2022-11-02T05:56:12.242Z,100.00
2022-11-02T05:58:58.929Z,100.00
2022-11-02T06:01:40.268Z,100.00
2022-11-02T06:04:09.433Z,100.00
2022-11-02T06:07:05.567Z,100.00
2022-11-02T06:16:09.906Z,100.00
2022-11-02T06:26:37.650Z,100.00
2022-11-02T06:40:45.826Z,100.00
2022-11-02T06:43:44.901Z,100.00
2022-11-02T06:47:14.234Z,100.00
2022-11-02T06:50:01.443Z,100.00
2022-11-02T06:53:08.047Z,100.00
2022-11-02T06:56:09.430Z,100.00
2022-11-02T07:31:53.079Z,100.00
2022-11-02T07:34:54.157Z,100.00
2022-11-02T07:37:56.087Z,100.00
2022-11-02T07:40:56.774Z,100.00
2022-11-02T07:50:32.130Z,100.00
2022-11-02T07:53:29.933Z,100.00
2022-11-02T07:56:17.549Z,100.00
2022-11-02T07:58:45.062Z,100.00
2022-11-02T08:01:35.963Z,100.00
2022-11-02T08:04:27.689Z,100.00
2022-11-02T08:07:14.833Z,100.00
2022-11-02T08:12:45.980Z,100.00
2022-11-02T08:15:34.548Z,100.00
2022-11-02T08:18:26.069Z,100.00
2022-11-02T08:21:14.423Z,100.00
2022-11-02T08:24:02.926Z,100.00
2022-11-02T08:26:31.902Z,100.00
2022-11-02T08:29:20.333Z,100.00
2022-11-02T08:32:08.780Z,100.00
2022-11-02T08:34:35.662Z,100.00
2022-11-02T08:37:22.378Z,100.00
2022-11-02T08:40:09.848Z,93.90
2022-11-02T08:42:39.955Z,83.78
2022-11-02T08:45:09.053Z,81.90
2022-11-02T08:48:42.213Z,82.09
2022-11-02T08:51:09.416Z,89.51
2022-11-02T08:54:19.277Z,88.86
2022-11-02T08:56:46.263Z,89.03
2022-11-02T08:59:38.156Z,86.33
2022-11-02T09:02:07.700Z,85.97
2022-11-02T09:04:55.072Z,82.67
2022-11-02T09:07:41.765Z,86.36
2022-11-02T09:10:09.635Z,82.93
2022-11-02T09:12:41.840Z,83.18
2022-11-02T09:15:15.460Z,85.73
2022-11-02T09:18:07.784Z,85.27
2022-11-02T09:20:39.252Z,87.89
2022-11-02T09:23:06.378Z,89.62
2022-11-02T09:25:33.314Z,91.83
2022-11-02T09:28:04.137Z,95.35
2022-11-02T09:30:37.307Z,93.10
2022-11-02T09:33:08.785Z,87.53
2022-11-02T09:35:39.020Z,83.07
2022-11-02T09:38:06.054Z,68.54
2022-11-02T09:40:37.131Z,62.75
2022-11-02T09:43:34.108Z,65.50
2022-11-02T09:46:11.927Z,65.25
2022-11-02T09:49:21.396Z,68.16
2022-11-02T09:52:19.486Z,70.90
2022-11-02T09:54:52.149Z,74.98
2022-11-02T09:57:24.816Z,73.58
2022-11-02T09:59:51.598Z,77.49
2022-11-02T10:02:49.930Z,72.72
2022-11-02T10:05:56.475Z,73.36
2022-11-02T10:08:35.319Z,71.93
2022-11-02T10:11:13.984Z,78.77
2022-11-02T10:14:01.112Z,76.75
2022-11-02T10:16:38.472Z,71.48
2022-11-02T10:19:13.980Z,72.17
2022-11-02T10:21:55.241Z,74.42
2022-11-02T10:24:25.699Z,75.38
2022-11-02T10:27:01.272Z,77.47
2022-11-02T10:29:47.733Z,78.44
2022-11-02T10:32:17.269Z,81.70
2022-11-02T10:35:26.343Z,82.94
2022-11-02T10:38:14.771Z,81.25
2022-11-02T10:41:13.424Z,79.64
2022-11-02T10:44:19.036Z,81.30
2022-11-02T10:47:18.453Z,79.34
2022-11-02T10:50:24.250Z,78.54
2022-11-02T10:52:51.015Z,77.58
2022-11-02T10:55:26.534Z,74.50
2022-11-02T10:58:19.912Z,67.89
2022-11-02T11:00:49.040Z,61.38
2022-11-02T11:03:17.656Z,56.91
2022-11-02T11:05:51.823Z,50.42
2022-11-02T11:08:44.575Z,47.92
2022-11-02T11:11:22.188Z,57.48
2022-11-02T11:16:52.727Z,57.88
2022-11-02T11:20:00.329Z,55.50
2022-11-02T11:22:36.492Z,52.19
2022-11-02T11:25:12.417Z,60.40
2022-11-02T11:27:47.301Z,55.20
2022-11-02T11:30:54.131Z,49.43
2022-11-02T11:33:17.231Z,48.80
2022-11-02T11:35:47.768Z,62.04
2022-11-02T11:38:24.425Z,59.51
2022-11-02T11:40:54.785Z,62.88
2022-11-02T11:43:28.179Z,59.01
2022-11-02T11:46:06.771Z,57.89
2022-11-02T11:48:36.411Z,61.81
2022-11-02T11:51:04.806Z,59.41
2022-11-02T11:53:31.984Z,62.43
2022-11-02T11:56:01.744Z,67.23
2022-11-02T11:58:28.340Z,69.22
2022-11-02T12:01:14.657Z,73.25
2022-11-02T12:04:01.547Z,73.58
2022-11-02T12:06:34.632Z,64.03
2022-11-02T12:09:19.540Z,60.42
2022-11-02T12:11:48.900Z,61.03
2022-11-02T12:14:18.612Z,55.35
2022-11-02T12:16:48.185Z,57.41
2022-11-02T12:19:21.097Z,56.61
2022-11-02T12:22:02.309Z,55.69
2022-11-02T12:24:59.342Z,62.03
2022-11-02T12:27:43.835Z,60.06
2022-11-02T12:30:17.164Z,62.31
2022-11-02T12:33:00.345Z,61.29
2022-11-02T12:36:06.058Z,68.04
2022-11-02T12:38:51.272Z,67.54
2022-11-02T12:41:42.951Z,70.42
2022-11-02T12:44:16.450Z,71.42
2022-11-02T12:47:08.411Z,71.60
2022-11-02T12:49:55.720Z,73.13
2022-11-02T12:52:29.388Z,74.70
2022-11-02T12:54:57.677Z,75.16
2022-11-02T12:57:29.441Z,75.87
2022-11-02T13:00:07.945Z,76.71
2022-11-02T13:02:51.969Z,77.71
2022-11-02T13:05:23.642Z,78.65
2022-11-02T13:08:10.033Z,77.66
2022-11-02T13:10:47.183Z,76.61
2022-11-02T13:13:26.977Z,77.29
2022-11-02T13:15:54.880Z,79.07
2022-11-02T13:18:33.594Z,79.84
2022-11-02T13:21:03.497Z,78.35
2022-11-02T13:23:40.719Z,79.06
2022-11-02T13:26:26.354Z,79.77
2022-11-02T13:28:57.798Z,79.27
2022-11-02T13:31:48.626Z,81.62
2022-11-02T13:34:22.434Z,82.52
2022-11-02T13:36:49.451Z,79.47
2022-11-02T13:39:29.991Z,81.68
2022-11-02T13:42:51.663Z,82.58
2022-11-02T13:45:39.966Z,82.18
2022-11-02T13:48:15.079Z,83.37
2022-11-02T13:50:50.979Z,84.35
2022-11-02T13:53:34.760Z,85.46
2022-11-02T13:56:09.486Z,85.61
2022-11-02T13:58:49.192Z,86.94
2022-11-02T14:01:20.312Z,90.20
2022-11-02T14:04:02.435Z,92.67
2022-11-02T14:06:31.893Z,95.31
2022-11-02T14:09:05.455Z,97.76
2022-11-02T14:11:47.614Z,99.80
2022-11-02T14:14:25.312Z,100.00
2022-11-02T14:16:52.975Z,100.00
2022-11-02T14:19:32.220Z,100.00
2022-11-02T14:22:00.784Z,100.00
2022-11-02T14:24:36.277Z,100.00
2022-11-02T14:27:13.253Z,100.00
2022-11-02T14:29:47.194Z,100.00
2022-11-02T14:33:09.855Z,100.00
2022-11-02T14:35:46.987Z,100.00
2022-11-02T14:39:04.354Z,100.00
2022-11-02T14:42:08.445Z,100.00
2022-11-02T14:45:00.491Z,100.00
2022-11-02T14:47:34.082Z,100.00
2022-11-02T14:50:21.368Z,100.00
2022-11-02T14:53:09.222Z,100.00
2022-11-02T14:55:38.849Z,100.00
2022-11-02T14:58:18.942Z,100.00
2022-11-02T15:00:48.807Z,100.00
2022-11-02T15:03:25.886Z,100.00
2022-11-02T15:06:08.102Z,100.00
2022-11-02T15:08:48.223Z,100.00
2022-11-02T15:11:53.865Z,100.00
2022-11-02T15:14:36.450Z,100.00
2022-11-02T15:17:24.348Z,100.00
2022-11-02T15:20:12.745Z,100.00
2022-11-02T15:22:54.061Z,100.00
2022-11-02T15:25:25.344Z,100.00
2022-11-02T15:27:57.701Z,100.00
2022-11-02T15:30:28.252Z,100.00
2022-11-02T15:33:06.592Z,100.00
2022-11-02T15:35:37.379Z,100.00
2022-11-02T15:38:32.617Z,100.00
2022-11-02T15:41:25.354Z,100.00
2022-11-02T15:44:06.458Z,100.00
2022-11-02T15:46:49.390Z,100.00
2022-11-02T15:49:25.368Z,100.00
2022-11-02T15:53:20.972Z,100.00
2022-11-02T15:56:07.812Z,100.00
2022-11-02T15:58:38.418Z,100.00
2022-11-02T16:01:29.344Z,100.00
2022-11-02T16:04:03.501Z,100.00
2022-11-02T16:06:45.363Z,100.00
2022-11-02T16:09:35.659Z,100.00
2022-11-02T16:12:10.026Z,100.00
2022-11-02T16:14:36.993Z,100.00
2022-11-02T16:17:04.792Z,100.00
2022-11-02T16:19:33.733Z,100.00
2022-11-02T16:22:09.529Z,100.00
2022-11-02T16:24:56.349Z,100.00
2022-11-02T16:27:33.982Z,100.00
2022-11-02T16:30:22.702Z,100.00
2022-11-02T16:33:00.601Z,100.00
2022-11-02T16:35:28.005Z,100.00
2022-11-02T16:37:55.341Z,100.00
2022-11-02T16:40:45.158Z,100.00
2022-11-02T16:43:32.958Z,100.00
2022-11-02T16:46:17.167Z,100.00
2022-11-02T16:49:26.041Z,100.00
2022-11-02T16:52:06.728Z,100.00
2022-11-02T16:54:45.473Z,100.00
2022-11-02T16:57:34.388Z,100.00
2022-11-02T17:00:10.865Z,100.00
2022-11-02T17:02:40.727Z,100.00
2022-11-02T17:05:41.402Z,100.00
2022-11-02T17:08:37.691Z,100.00
2022-11-02T17:11:21.634Z,100.00
2022-11-02T17:14:11.266Z,100.00
2022-11-02T17:17:00.926Z,100.00
2022-11-02T17:19:53.596Z,100.00
2022-11-02T17:22:26.820Z,100.00
2022-11-02T17:25:08.957Z,100.00
2022-11-02T17:27:39.341Z,100.00
2022-11-02T17:30:34.458Z,100.00
2022-11-02T17:33:19.554Z,100.00
2022-11-02T17:35:48.459Z,100.00
2022-11-02T17:38:15.399Z,100.00
2022-11-02T17:40:42.358Z,100.00
2022-11-02T17:43:09.104Z,100.00
2022-11-02T17:45:37.556Z,100.00
2022-11-02T17:48:06.427Z,100.00
2022-11-02T17:50:37.601Z,100.00
2022-11-02T17:53:05.990Z,100.00
2022-11-02T17:55:34.546Z,100.00
2022-11-02T17:58:03.141Z,100.00
2022-11-02T18:00:43.221Z,100.00
2022-11-02T18:03:19.414Z,100.00
2022-11-02T18:09:01.042Z,100.00
2022-11-02T18:11:40.806Z,100.00
2022-11-02T18:14:38.843Z,100.00
2022-11-02T18:17:07.868Z,100.00
2022-11-02T18:19:36.961Z,100.00
2022-11-02T18:22:15.645Z,100.00
2022-11-02T18:25:02.555Z,100.00
2022-11-02T18:27:34.773Z,100.00
2022-11-02T18:30:02.796Z,100.00
2022-11-02T18:32:30.779Z,100.00
2022-11-02T18:34:57.957Z,100.00
2022-11-02T18:37:24.943Z,100.00
2022-11-02T18:39:51.863Z,100.00
2022-11-02T18:42:37.684Z,100.00
2022-11-02T18:48:00.504Z,100.00
2022-11-02T18:50:39.251Z,100.00
2022-11-02T18:53:25.941Z,100.00
2022-11-02T18:56:03.206Z,100.00
2022-11-02T18:58:59.088Z,100.00
2022-11-02T19:01:45.975Z,100.00
2022-11-02T19:04:27.643Z,100.00
2022-11-02T19:07:32.979Z,100.00
2022-11-02T19:10:12.880Z,100.00
2022-11-02T19:13:03.956Z,100.00
2022-11-02T19:15:45.135Z,100.00
2022-11-02T19:18:31.954Z,100.00
2022-11-02T19:21:03.941Z,100.00
2022-11-02T19:23:55.467Z,100.00
2022-11-02T19:28:51.735Z,100.00
2022-11-02T19:31:27.128Z,100.00
2022-11-02T19:33:54.795Z,100.00
2022-11-02T19:36:38.367Z,100.00
2022-11-02T19:42:53.994Z,100.00
2022-11-02T19:48:39.648Z,100.00
2022-11-02T19:51:36.412Z,100.00
2022-11-02T19:54:35.118Z,100.00
2022-11-02T19:57:50.240Z,100.00
2022-11-02T20:00:54.571Z,100.00
2022-11-02T20:03:42.392Z,100.00
2022-11-02T20:06:35.345Z,100.00
2022-11-02T20:09:04.881Z,100.00
2022-11-02T20:12:12.136Z,100.00
2022-11-02T20:15:11.623Z,100.00
2022-11-02T20:18:17.983Z,100.00
2022-11-02T20:20:41.612Z,100.00
2022-11-02T20:23:34.522Z,100.00
2022-11-02T20:26:20.847Z,100.00
2022-11-02T20:29:19.222Z,100.00
2022-11-02T20:33:48.324Z,100.00
2022-11-02T20:38:44.532Z,100.00
2022-11-02T20:41:04.774Z,100.00
2022-11-02T20:43:38.164Z,100.00
2022-11-02T20:46:50.099Z,100.00
2022-11-02T20:49:49.248Z,100.00
2022-11-02T20:52:14.358Z,100.00
2022-11-02T20:55:12.261Z,100.00
2022-11-02T20:57:59.862Z,100.00
2022-11-02T21:03:52.599Z,100.00
2022-11-02T21:07:07.195Z,100.00
2022-11-02T21:16:28.936Z,100.00
2022-11-02T21:19:57.856Z,100.00
2022-11-02T21:22:37.355Z,100.00
2022-11-02T21:25:24.005Z,100.00
2022-11-02T21:27:51.394Z,100.00
2022-11-02T21:30:18.875Z,100.00
2022-11-02T21:32:46.414Z,100.00
2022-11-02T21:35:13.370Z,100.00
2022-11-02T21:37:40.077Z,100.00
2022-11-02T21:40:11.862Z,100.00
2022-11-02T21:42:48.341Z,100.00
2022-11-02T21:45:18.113Z,100.00
2022-11-02T21:47:45.202Z,100.00
2022-11-02T21:50:12.130Z,100.00
2022-11-02T21:52:41.091Z,100.00
2022-11-02T21:55:11.551Z,100.00
2022-11-02T21:57:38.226Z,100.00
2022-11-02T22:00:06.593Z,100.00
2022-11-02T22:02:33.430Z,100.00
2022-11-02T22:05:04.530Z,100.00
2022-11-02T22:07:51.601Z,100.00
2022-11-02T22:10:22.727Z,100.00
2022-11-02T22:13:08.463Z,100.00
2022-11-02T22:15:38.328Z,100.00
2022-11-02T22:18:05.365Z,100.00
2022-11-02T22:20:32.070Z,100.00
2022-11-02T22:23:00.780Z,100.00
2022-11-02T22:25:31.645Z,100.00
2022-11-02T22:27:58.346Z,100.00
2022-11-02T22:30:42.407Z,100.00
2022-11-02T22:33:11.591Z,100.00
2022-11-02T22:35:38.583Z,100.00
2022-11-02T22:38:29.328Z,100.00
2022-11-02T22:41:02.257Z,100.00
2022-11-02T22:43:29.409Z,100.00
2022-11-02T22:46:06.920Z,100.00
2022-11-02T22:48:34.654Z,100.00
2022-11-02T22:51:03.034Z,100.00
2022-11-02T22:53:30.255Z,100.00
2022-11-02T22:56:02.927Z,100.00
2022-11-02T22:58:31.559Z,100.00
2022-11-02T23:00:58.865Z,100.00
2022-11-02T23:03:47.212Z,100.00
2022-11-02T23:06:14.603Z,100.00
2022-11-02T23:08:52.185Z,100.00
2022-11-02T23:11:22.672Z,100.00
2022-11-02T23:13:52.541Z,100.00
2022-11-02T23:16:24.165Z,100.00
2022-11-02T23:19:27.345Z,100.00
2022-11-02T23:22:20.856Z,100.00
2022-11-02T23:25:09.878Z,100.00
2022-11-02T23:28:17.625Z,100.00
2022-11-02T23:31:05.291Z,100.00
2022-11-02T23:33:37.705Z,100.00
2022-11-02T23:36:15.509Z,100.00
2022-11-02T23:39:20.574Z,100.00
2022-11-02T23:42:07.270Z,100.00
2022-11-02T23:44:34.095Z,100.00
2022-11-02T23:47:41.198Z,100.00
2022-11-02T23:50:11.260Z,100.00
2022-11-02T23:53:16.544Z,100.00
2022-11-02T23:56:22.926Z,100.00
2022-11-02T23:59:06.483Z,100.00
